createdAt,value
2019-03-21T00:01:42.529Z,5.10
2019-03-21T00:04:14.331Z,5.30
2019-03-21T00:06:44.996Z,5.30
2019-03-21T00:09:18.375Z,5.00
2019-03-21T00:12:02.118Z,4.80
2019-03-21T00:15:13.945Z,5.00
2019-03-21T00:17:51.264Z,5.00
2019-03-21T00:20:21.610Z,5.00
2019-03-21T00:22:51.690Z,5.00
2019-03-21T00:25:23.075Z,5.00
2019-03-21T00:27:54.811Z,4.90
2019-03-21T00:30:25.865Z,4.90
2019-03-21T00:32:57.016Z,4.70
2019-03-21T00:35:27.757Z,4.60
2019-03-21T00:37:58.043Z,4.70
2019-03-21T00:40:30.218Z,4.70
2019-03-21T00:43:02.334Z,4.60
2019-03-21T00:45:32.580Z,4.70
2019-03-21T00:48:04.890Z,4.80
2019-03-21T00:50:35.748Z,4.60
2019-03-21T00:53:05.708Z,4.50
2019-03-21T00:55:38.230Z,4.50
2019-03-21T00:58:09.614Z,4.70
2019-03-21T01:00:43.992Z,4.60
2019-03-21T01:03:14.415Z,4.50
2019-03-21T01:05:44.390Z,4.50
2019-03-21T01:08:14.282Z,4.50
2019-03-21T01:10:44.716Z,4.30
2019-03-21T01:13:15.163Z,4.30
2019-03-21T01:15:45.855Z,4.20
2019-03-21T01:18:16.155Z,4.20
2019-03-21T01:20:47.145Z,4.10
2019-03-21T01:23:17.531Z,4.00
2019-03-21T01:25:49.805Z,4.00
2019-03-21T01:28:19.785Z,4.00
2019-03-21T01:30:49.455Z,3.80
2019-03-21T01:33:19.411Z,3.70
2019-03-21T01:35:49.998Z,3.90
2019-03-21T01:38:19.954Z,3.80
2019-03-21T01:40:51.468Z,4.00
2019-03-21T01:43:21.483Z,4.20
2019-03-21T01:45:55.017Z,4.20
2019-03-21T01:48:26.222Z,4.20
2019-03-21T01:50:56.656Z,4.20
2019-03-21T01:53:26.341Z,4.20
2019-03-21T01:55:56.292Z,4.20
2019-03-21T01:58:28.699Z,4.20
2019-03-21T02:00:58.676Z,4.10
2019-03-21T02:03:29.122Z,3.90
2019-03-21T02:05:58.774Z,3.80
2019-03-21T02:08:28.544Z,3.80
2019-03-21T02:10:58.829Z,3.70
2019-03-21T02:13:28.913Z,3.60
2019-03-21T02:15:59.366Z,3.30
2019-03-21T02:18:29.771Z,3.20
2019-03-21T02:21:02.724Z,3.10
2019-03-21T02:23:33.787Z,3.10
2019-03-21T02:26:03.615Z,3.00
2019-03-21T02:28:35.452Z,2.90
2019-03-21T02:31:05.209Z,2.90
2019-03-21T02:33:34.832Z,2.70
2019-03-21T02:36:04.896Z,2.70
2019-03-21T02:38:34.923Z,2.60
2019-03-21T02:41:06.453Z,2.70
2019-03-21T02:43:36.630Z,2.60
2019-03-21T02:46:07.201Z,2.50
2019-03-21T02:48:36.910Z,2.50
2019-03-21T02:51:07.442Z,2.60
2019-03-21T02:53:37.834Z,2.50
2019-03-21T02:56:09.721Z,2.30
2019-03-21T02:58:39.978Z,2.10
2019-03-21T03:01:09.896Z,2.20
2019-03-21T03:03:39.503Z,2.20
2019-03-21T03:06:10.531Z,2.20
2019-03-21T03:08:40.100Z,2.20
2019-03-21T03:11:10.987Z,2.30
2019-03-21T03:13:44.267Z,2.50
2019-03-21T03:16:13.976Z,2.70
2019-03-21T03:18:43.999Z,2.80
2019-03-21T03:21:13.626Z,2.80
2019-03-21T03:23:43.362Z,3.00
2019-03-21T03:26:13.607Z,3.10
2019-03-21T03:28:43.374Z,3.00
2019-03-21T03:31:13.355Z,2.80
2019-03-21T03:33:45.773Z,2.70
2019-03-21T03:36:16.285Z,2.90
2019-03-21T03:38:46.157Z,2.70
2019-03-21T03:41:16.253Z,2.50
2019-03-21T03:43:46.615Z,2.40
2019-03-21T03:46:16.972Z,2.30
2019-03-21T03:48:48.310Z,2.40
2019-03-21T03:51:18.458Z,2.50
2019-03-21T03:53:48.451Z,2.70
2019-03-21T03:56:18.489Z,2.90
2019-03-21T03:58:50.887Z,3.00
2019-03-21T04:01:20.787Z,2.90
2019-03-21T04:03:50.541Z,2.70
2019-03-21T04:06:20.746Z,2.50
2019-03-21T04:08:50.771Z,2.60
2019-03-21T04:11:20.880Z,2.70
2019-03-21T04:13:51.339Z,2.60
2019-03-21T04:16:21.525Z,2.50
2019-03-21T04:18:51.571Z,2.50
2019-03-21T04:21:30.333Z,2.40
2019-03-21T04:24:00.330Z,2.60
2019-03-21T04:26:32.493Z,2.80
2019-03-21T04:29:03.084Z,2.80
2019-03-21T04:31:33.149Z,2.90
2019-03-21T04:34:04.638Z,2.90
2019-03-21T04:36:35.972Z,3.00
2019-03-21T04:39:09.587Z,2.90
2019-03-21T04:41:43.442Z,2.70
2019-03-21T04:44:16.163Z,2.70
2019-03-21T04:46:46.533Z,2.70
2019-03-21T04:49:18.213Z,2.70
2019-03-21T04:51:48.154Z,2.50
2019-03-21T04:54:18.100Z,2.60
2019-03-21T04:56:48.111Z,2.70
2019-03-21T04:59:19.316Z,2.60
2019-03-21T05:01:50.312Z,2.70
2019-03-21T05:04:20.496Z,2.50
2019-03-21T05:06:50.535Z,2.50
2019-03-21T05:09:20.944Z,2.60
2019-03-21T05:11:55.755Z,2.70
2019-03-21T05:14:26.495Z,2.70
2019-03-21T05:16:57.526Z,2.60
2019-03-21T05:19:27.732Z,2.70
2019-03-21T05:21:57.424Z,2.60
2019-03-21T05:24:28.209Z,2.50
2019-03-21T05:26:57.867Z,2.50
2019-03-21T05:29:27.587Z,2.60
2019-03-21T05:31:59.374Z,2.50
2019-03-21T05:34:29.827Z,2.60
2019-03-21T05:37:00.941Z,2.60
2019-03-21T05:39:30.844Z,2.50
2019-03-21T05:42:01.336Z,2.60
2019-03-21T05:44:35.242Z,2.70
2019-03-21T05:47:04.896Z,2.70
2019-03-21T05:49:35.167Z,2.70
2019-03-21T05:52:05.848Z,2.70
2019-03-21T05:54:36.885Z,2.70
2019-03-21T05:57:06.563Z,2.70
2019-03-21T05:59:36.548Z,2.70
2019-03-21T06:02:08.110Z,2.80
2019-03-21T06:04:38.328Z,2.90
2019-03-21T06:07:33.077Z,2.90
2019-03-21T06:10:05.343Z,2.90
2019-03-21T06:12:42.283Z,2.80
2019-03-21T06:15:13.729Z,2.90
2019-03-21T06:17:44.555Z,2.70
2019-03-21T06:21:01.769Z,2.70
2019-03-21T06:24:28.359Z,2.80
2019-03-21T06:27:28.338Z,2.70
2019-03-21T06:30:35.949Z,3.00
2019-03-21T06:33:45.765Z,2.70
2019-03-21T06:43:50.905Z,2.70
2019-03-21T06:46:21.345Z,2.90
2019-03-21T06:48:51.960Z,3.00
2019-03-21T06:51:23.566Z,2.90
2019-03-21T06:54:12.038Z,2.90
2019-03-21T06:56:42.241Z,2.90
2019-03-21T06:59:13.919Z,3.00
2019-03-21T07:02:11.973Z,2.90
2019-03-21T07:04:45.140Z,2.90
2019-03-21T07:07:16.268Z,2.80
2019-03-21T07:09:47.344Z,2.80
2019-03-21T07:12:17.327Z,3.00
2019-03-21T07:14:47.830Z,3.10
2019-03-21T07:17:18.091Z,3.10
2019-03-21T07:19:51.496Z,3.20
2019-03-21T07:22:22.104Z,3.20
2019-03-21T07:24:51.771Z,3.50
2019-03-21T07:27:26.578Z,3.60
2019-03-21T07:29:58.895Z,3.80
2019-03-21T07:32:33.602Z,3.90
2019-03-21T07:35:03.267Z,4.00
2019-03-21T07:37:33.991Z,4.00
2019-03-21T07:40:03.975Z,4.10
2019-03-21T07:42:34.036Z,4.30
2019-03-21T07:45:03.965Z,4.60
2019-03-21T07:47:33.888Z,4.90
2019-03-21T07:50:02.675Z,5.30
2019-03-21T07:52:33.627Z,5.80
2019-03-21T07:55:04.175Z,6.10
2019-03-21T07:57:36.535Z,6.60
2019-03-21T08:00:09.794Z,7.30
2019-03-21T08:02:42.265Z,7.90
2019-03-21T08:05:12.700Z,8.40
2019-03-21T08:07:43.326Z,8.80
2019-03-21T08:10:13.964Z,9.20
2019-03-21T08:12:46.565Z,9.00
2019-03-21T08:15:18.049Z,9.00
2019-03-21T08:17:48.709Z,9.40
2019-03-21T08:20:18.683Z,9.00
2019-03-21T08:22:48.946Z,9.70
2019-03-21T08:25:18.783Z,10.00
2019-03-21T08:27:51.696Z,9.80
2019-03-21T08:30:37.942Z,9.30
2019-03-21T08:33:07.776Z,9.50
2019-03-21T08:35:38.434Z,9.90
2019-03-21T08:38:08.526Z,10.80
2019-03-21T08:40:38.535Z,11.10
2019-03-21T08:43:08.442Z,11.20
2019-03-21T08:45:38.409Z,11.50
2019-03-21T08:48:08.486Z,11.70
2019-03-21T08:50:39.326Z,12.30
2019-03-21T08:53:10.055Z,12.60
2019-03-21T08:55:41.849Z,11.70
2019-03-21T08:58:12.028Z,11.90
2019-03-21T09:00:42.329Z,11.50
2019-03-21T09:03:12.967Z,12.10
2019-03-21T09:05:42.750Z,12.70
2019-03-21T09:08:12.887Z,12.80
2019-03-21T09:10:44.202Z,12.00
2019-03-21T09:13:14.181Z,11.90
2019-03-21T09:15:44.816Z,12.10
2019-03-21T09:18:15.004Z,12.60
2019-03-21T09:20:47.099Z,12.30
2019-03-21T09:23:17.658Z,12.10
2019-03-21T09:25:47.521Z,12.50
2019-03-21T09:28:17.156Z,12.90
2019-03-21T09:30:47.183Z,13.70
2019-03-21T09:33:17.798Z,14.50
2019-03-21T09:35:47.735Z,14.90
2019-03-21T09:38:17.917Z,15.70
2019-03-21T09:40:47.911Z,17.20
2019-03-21T09:43:19.153Z,19.80
2019-03-21T09:45:48.885Z,21.80
2019-03-21T09:48:19.151Z,23.40
2019-03-21T09:50:49.280Z,24.30
2019-03-21T09:53:18.763Z,24.00
2019-03-21T09:55:48.733Z,24.80
2019-03-21T09:58:21.684Z,23.90
2019-03-21T10:00:51.652Z,21.20
2019-03-21T10:03:21.994Z,21.20
2019-03-21T10:05:56.512Z,21.40
2019-03-21T10:08:27.154Z,21.80
2019-03-21T10:11:00.581Z,20.30
2019-03-21T10:13:30.212Z,21.30
2019-03-21T10:16:00.340Z,20.50
2019-03-21T10:18:30.875Z,21.00
2019-03-21T10:21:01.014Z,21.70
2019-03-21T10:23:31.854Z,21.50
2019-03-21T10:26:01.944Z,20.30
2019-03-21T10:28:33.246Z,19.00
2019-03-21T10:31:04.563Z,19.30
2019-03-21T10:33:34.920Z,18.60
2019-03-21T10:36:05.810Z,17.70
2019-03-21T10:38:35.386Z,17.40
2019-03-21T10:41:05.460Z,15.10
2019-03-21T10:43:34.247Z,13.70
2019-03-21T10:46:04.368Z,13.10
2019-03-21T10:48:35.027Z,12.00
2019-03-21T10:51:11.512Z,12.10
2019-03-21T10:53:43.788Z,11.50
2019-03-21T10:56:21.959Z,11.30
2019-03-21T10:58:50.239Z,11.10
2019-03-21T11:01:20.216Z,11.00
2019-03-21T11:03:50.361Z,10.80
2019-03-21T11:06:21.283Z,10.60
2019-03-21T11:08:52.226Z,10.80
2019-03-21T11:11:22.191Z,10.90
2019-03-21T11:13:52.590Z,10.80
2019-03-21T11:16:22.717Z,10.70
2019-03-21T11:18:54.983Z,10.60
2019-03-21T11:21:24.590Z,10.30
2019-03-21T11:23:54.777Z,10.40
2019-03-21T11:26:25.270Z,10.50
2019-03-21T11:28:56.465Z,10.50
2019-03-21T11:31:26.476Z,10.40
2019-03-21T11:33:56.445Z,10.60
2019-03-21T11:36:37.853Z,10.80
2019-03-21T11:38:58.951Z,10.70
2019-03-21T11:41:31.145Z,10.60
2019-03-21T11:44:02.547Z,10.80
2019-03-21T11:46:34.594Z,10.90
2019-03-21T11:49:05.305Z,10.80
2019-03-21T11:51:35.871Z,10.70
2019-03-21T11:54:06.200Z,10.80
2019-03-21T11:56:37.234Z,10.80
2019-03-21T11:59:07.204Z,10.90
2019-03-21T12:01:37.215Z,11.00
2019-03-21T12:04:14.453Z,10.90
2019-03-21T12:06:45.418Z,10.70
2019-03-21T12:09:15.560Z,10.80
2019-03-21T12:11:45.733Z,10.70
2019-03-21T12:14:15.824Z,10.90
2019-03-21T12:16:46.652Z,11.00
2019-03-21T12:19:16.519Z,10.90
2019-03-21T12:21:46.880Z,10.90
2019-03-21T12:24:18.520Z,11.10
2019-03-21T12:26:48.471Z,11.20
2019-03-21T12:29:20.537Z,11.20
2019-03-21T12:31:51.449Z,11.20
2019-03-21T12:34:21.741Z,11.40
2019-03-21T12:36:52.392Z,11.40
2019-03-21T12:39:23.225Z,11.40
2019-03-21T12:41:52.916Z,11.50
2019-03-21T12:44:24.014Z,11.40
2019-03-21T12:46:53.994Z,11.60
2019-03-21T12:49:23.789Z,11.50
2019-03-21T12:51:54.077Z,11.50
2019-03-21T12:54:24.433Z,11.40
2019-03-21T12:56:54.398Z,11.30
2019-03-21T12:59:24.379Z,11.30
2019-03-21T13:01:54.957Z,11.40
2019-03-21T13:04:25.927Z,11.60
2019-03-21T13:06:55.815Z,11.80
2019-03-21T13:09:25.814Z,11.90
2019-03-21T13:11:55.707Z,12.00
2019-03-21T13:14:25.667Z,12.00
2019-03-21T13:16:56.915Z,11.90
2019-03-21T13:19:28.483Z,11.90
2019-03-21T13:21:59.340Z,11.90
2019-03-21T13:24:28.915Z,11.90
2019-03-21T13:27:00.325Z,11.80
2019-03-21T13:29:30.865Z,12.00
2019-03-21T13:32:00.801Z,12.10
2019-03-21T13:34:32.698Z,12.00
2019-03-21T13:37:02.806Z,11.90
2019-03-21T13:39:35.675Z,11.90
2019-03-21T13:42:05.781Z,12.00
2019-03-21T13:44:36.505Z,12.10
2019-03-21T13:47:06.085Z,12.30
2019-03-21T13:49:36.012Z,12.40
2019-03-21T13:52:06.202Z,12.40
2019-03-21T13:54:37.156Z,12.30
2019-03-21T13:57:07.977Z,12.20
2019-03-21T13:59:36.421Z,12.20
2019-03-21T14:02:05.522Z,12.30
2019-03-21T14:04:36.534Z,12.20
2019-03-21T14:07:08.811Z,12.30
2019-03-21T14:09:39.750Z,12.30
2019-03-21T14:12:09.645Z,12.40
2019-03-21T14:14:40.692Z,12.30
2019-03-21T14:17:21.582Z,12.50
2019-03-21T14:19:43.021Z,12.50
2019-03-21T14:22:14.610Z,12.50
2019-03-21T14:24:44.356Z,12.40
2019-03-21T14:27:14.583Z,12.30
2019-03-21T14:29:44.175Z,12.30
2019-03-21T14:32:14.471Z,12.40
2019-03-21T14:34:46.091Z,12.30
2019-03-21T14:37:17.196Z,12.40
2019-03-21T14:39:48.312Z,12.40
2019-03-21T14:42:18.252Z,12.30
2019-03-21T14:44:49.041Z,12.30
2019-03-21T14:47:17.771Z,12.20
2019-03-21T14:49:46.936Z,12.30
2019-03-21T14:52:15.473Z,12.30
2019-03-21T14:54:44.738Z,12.30
2019-03-21T14:57:13.940Z,12.30
2019-03-21T14:59:43.819Z,12.40
2019-03-21T15:02:14.108Z,12.40
2019-03-21T15:04:42.644Z,12.30
2019-03-21T15:07:11.110Z,12.60
2019-03-21T15:09:40.849Z,12.70
2019-03-21T15:12:10.192Z,12.80
2019-03-21T15:14:39.771Z,12.70
2019-03-21T15:17:08.363Z,12.60
2019-03-21T15:19:39.154Z,12.50
2019-03-21T15:22:07.881Z,12.40
2019-03-21T15:24:37.082Z,12.30
2019-03-21T15:27:06.612Z,12.40
2019-03-21T15:29:36.047Z,12.30
2019-03-21T15:32:05.931Z,12.30
2019-03-21T15:34:34.379Z,12.20
2019-03-21T15:37:03.911Z,12.30
2019-03-21T15:39:33.227Z,12.30
2019-03-21T15:42:02.727Z,12.20
2019-03-21T15:44:31.695Z,12.20
2019-03-21T15:47:00.109Z,12.10
2019-03-21T15:49:30.702Z,12.10
2019-03-21T15:51:59.885Z,12.00
2019-03-21T15:54:30.713Z,12.00
2019-03-21T15:56:59.820Z,12.00
2019-03-21T15:59:28.612Z,11.90
2019-03-21T16:01:57.378Z,11.90
2019-03-21T16:04:25.746Z,11.90
2019-03-21T16:06:54.566Z,11.80
2019-03-21T16:09:24.216Z,11.90
2019-03-21T16:11:53.781Z,11.80
2019-03-21T16:14:23.226Z,11.80
2019-03-21T16:16:51.629Z,11.80
2019-03-21T16:19:20.349Z,11.70
2019-03-21T16:21:49.768Z,11.70
2019-03-21T16:24:20.795Z,11.60
2019-03-21T16:27:01.567Z,11.60
2019-03-21T16:29:46.517Z,11.50
2019-03-21T16:32:26.340Z,11.50
2019-03-21T16:34:56.677Z,11.60
2019-03-21T16:37:33.808Z,11.50
2019-03-21T16:40:08.156Z,11.50
2019-03-21T16:43:07.272Z,11.50
2019-03-21T16:45:43.938Z,11.40
2019-03-21T16:48:16.362Z,11.40
2019-03-21T16:50:51.188Z,11.40
2019-03-21T16:53:34.442Z,11.40
2019-03-21T16:56:12.702Z,11.40
2019-03-21T16:58:50.508Z,11.30
2019-03-21T17:01:28.351Z,11.20
2019-03-21T17:04:07.319Z,11.20
2019-03-21T17:07:02.109Z,11.20
2019-03-21T17:09:39.530Z,11.10
2019-03-21T17:12:17.403Z,11.00
2019-03-21T17:15:20.756Z,11.00
2019-03-21T17:18:12.542Z,10.90
2019-03-21T17:20:57.341Z,10.90
2019-03-21T17:23:33.245Z,10.90
2019-03-21T17:26:08.918Z,10.90
2019-03-21T17:28:51.127Z,10.90
2019-03-21T17:31:31.503Z,10.90
2019-03-21T17:34:24.744Z,10.80
2019-03-21T17:37:05.547Z,10.70
2019-03-21T17:39:36.334Z,10.70
2019-03-21T17:42:09.202Z,10.60
2019-03-21T17:44:41.091Z,10.60
2019-03-21T17:47:25.611Z,10.50
2019-03-21T17:49:57.234Z,10.40
2019-03-21T17:52:33.013Z,10.50
2019-03-21T17:55:05.859Z,10.50
2019-03-21T17:57:36.622Z,10.40
2019-03-21T18:00:15.125Z,10.40
2019-03-21T18:02:47.191Z,10.30
2019-03-21T18:05:17.303Z,10.20
2019-03-21T18:07:58.543Z,10.20
2019-03-21T18:10:31.762Z,10.30
2019-03-21T18:13:26.338Z,10.20
2019-03-21T18:15:58.775Z,10.20
2019-03-21T18:18:34.907Z,10.20
2019-03-21T18:21:59.988Z,10.20
2019-03-21T18:24:53.961Z,10.00
2019-03-21T18:27:55.444Z,10.00
2019-03-21T18:30:47.254Z,10.00
2019-03-21T18:34:03.471Z,10.00
2019-03-21T18:59:53.252Z,9.60
2019-03-21T19:07:12.795Z,9.40
2019-03-21T19:09:54.350Z,9.40
2019-03-21T19:12:26.855Z,9.40
2019-03-21T19:15:02.630Z,9.30
2019-03-21T19:17:40.299Z,9.20
2019-03-21T19:20:58.862Z,9.20
2019-03-21T19:23:53.251Z,9.10
2019-03-21T19:30:11.270Z,9.30
2019-03-21T19:32:51.938Z,9.40
2019-03-21T19:35:24.734Z,9.50
2019-03-21T19:37:58.176Z,9.50
2019-03-21T19:40:28.706Z,9.50
2019-03-21T19:42:59.200Z,9.40
2019-03-21T19:45:29.251Z,9.30
2019-03-21T19:48:10.617Z,9.30
2019-03-21T19:50:42.092Z,9.30
2019-03-21T19:53:16.127Z,9.10
2019-03-21T19:56:10.243Z,9.10
2019-03-21T19:58:54.091Z,9.20
2019-03-21T20:01:36.122Z,9.10
2019-03-21T20:04:22.552Z,9.10
2019-03-21T20:06:58.589Z,9.10
2019-03-21T20:09:30.249Z,8.90
2019-03-21T20:12:06.153Z,8.90
2019-03-21T20:14:36.202Z,8.80
2019-03-21T20:17:11.233Z,8.70
2019-03-21T20:19:45.636Z,8.70
2019-03-21T20:22:26.839Z,8.80
2019-03-21T20:24:57.500Z,8.70
2019-03-21T20:27:32.057Z,8.70
2019-03-21T20:30:07.397Z,8.60
2019-03-21T20:32:50.007Z,8.60
2019-03-21T20:43:26.909Z,8.80
2019-03-21T20:45:58.158Z,8.90
2019-03-21T20:48:30.204Z,9.00
2019-03-21T20:51:00.743Z,9.10
2019-03-21T20:53:31.483Z,9.00
2019-03-21T20:56:01.957Z,8.90
2019-03-21T20:58:37.819Z,8.80
2019-03-21T21:01:07.554Z,8.90
2019-03-21T21:03:37.423Z,8.80
2019-03-21T21:06:13.089Z,8.70
2019-03-21T21:08:46.835Z,8.70
2019-03-21T21:11:17.171Z,8.60
2019-03-21T21:13:46.969Z,8.60
2019-03-21T21:16:17.649Z,8.50
2019-03-21T21:18:49.385Z,8.40
2019-03-21T21:21:27.678Z,8.20
2019-03-21T21:23:57.886Z,8.30
2019-03-21T21:26:38.262Z,8.20
2019-03-21T21:29:11.475Z,8.20
2019-03-21T21:31:42.597Z,8.30
2019-03-21T21:34:14.571Z,8.50
2019-03-21T21:36:47.509Z,8.70
2019-03-21T21:39:17.231Z,8.80
2019-03-21T21:41:48.840Z,8.80
2019-03-21T21:44:18.927Z,8.60
2019-03-21T21:46:50.975Z,8.50
2019-03-21T21:49:23.140Z,8.40
2019-03-21T21:52:09.915Z,8.10
2019-03-21T21:55:32.613Z,7.90
2019-03-21T22:02:40.327Z,7.80
2019-03-21T22:08:49.204Z,8.00
2019-03-21T22:11:23.998Z,8.10
2019-03-21T22:14:12.523Z,8.10
2019-03-21T22:16:44.841Z,8.20
2019-03-21T22:19:35.518Z,8.20
2019-03-21T22:22:11.080Z,8.30
2019-03-21T22:24:45.749Z,8.20
2019-03-21T22:27:24.179Z,8.10
2019-03-21T22:29:56.175Z,8.00
2019-03-21T22:32:49.176Z,7.70
2019-03-21T22:35:23.390Z,7.60
2019-03-21T22:37:59.119Z,7.60
2019-03-21T22:40:30.520Z,7.60
2019-03-21T22:43:02.972Z,7.70
2019-03-21T22:45:34.960Z,7.60
2019-03-21T22:48:06.274Z,7.60
2019-03-21T22:50:43.033Z,7.50
2019-03-21T22:53:19.649Z,7.50
2019-03-21T22:55:57.900Z,7.60
2019-03-21T22:58:32.024Z,7.40
2019-03-21T23:01:05.109Z,7.30
2019-03-21T23:03:49.845Z,7.20
2019-03-21T23:06:18.464Z,7.10
2019-03-21T23:08:47.606Z,7.20
2019-03-21T23:11:17.363Z,7.00
2019-03-21T23:13:49.027Z,6.90
2019-03-21T23:16:20.191Z,6.90
2019-03-21T23:18:48.841Z,6.90
2019-03-21T23:21:22.273Z,6.90
2019-03-21T23:23:51.832Z,6.90
2019-03-21T23:26:20.771Z,6.80
2019-03-21T23:28:50.107Z,6.80
2019-03-21T23:31:18.972Z,6.70
2019-03-21T23:33:48.100Z,6.80
2019-03-21T23:36:16.519Z,6.70
2019-03-21T23:38:45.729Z,6.70
2019-03-21T23:41:14.620Z,6.70
2019-03-21T23:43:46.106Z,6.70
2019-03-21T23:46:43.371Z,6.60
2019-03-21T23:49:23.222Z,6.60
2019-03-21T23:52:43.796Z,6.60
2019-03-21T23:55:16.968Z,6.70
2019-03-21T23:57:47.929Z,6.60
